createdAt,value
2018-09-30T00:01:09.485Z,14.20
2018-09-30T00:03:42.715Z,14.10
2018-09-30T00:06:11.656Z,14.00
2018-09-30T00:08:40.900Z,13.90
2018-09-30T00:11:09.837Z,13.90
2018-09-30T00:13:38.578Z,14.00
2018-09-30T00:16:07.163Z,14.00
2018-09-30T00:18:35.733Z,13.90
2018-09-30T00:21:04.523Z,13.80
2018-09-30T00:23:38.439Z,13.80
2018-09-30T00:26:12.448Z,13.80
2018-09-30T00:28:43.177Z,13.80
2018-09-30T00:31:12.565Z,13.90
2018-09-30T00:33:46.277Z,13.90
2018-09-30T00:36:15.194Z,13.90
2018-09-30T00:38:43.891Z,13.90
2018-09-30T00:41:14.228Z,13.90
2018-09-30T00:43:43.414Z,13.80
2018-09-30T00:46:14.246Z,13.80
2018-09-30T00:48:43.209Z,13.80
2018-09-30T00:51:12.997Z,13.90
2018-09-30T00:53:42.575Z,13.90
2018-09-30T00:56:11.147Z,13.80
2018-09-30T00:58:39.902Z,13.70
2018-09-30T01:01:08.592Z,13.70
2018-09-30T01:03:37.234Z,13.60
2018-09-30T01:06:05.825Z,13.60
2018-09-30T01:08:34.417Z,13.50
2018-09-30T01:11:03.612Z,13.50
2018-09-30T01:13:32.267Z,13.50
2018-09-30T01:16:00.902Z,13.50
2018-09-30T01:18:29.631Z,13.60
2018-09-30T01:20:58.323Z,13.60
2018-09-30T01:23:27.029Z,13.60
2018-09-30T01:25:56.690Z,13.40
2018-09-30T01:28:25.315Z,13.20
2018-09-30T01:30:54.209Z,13.20
2018-09-30T01:33:23.524Z,13.10
2018-09-30T01:35:52.106Z,13.10
2018-09-30T01:38:20.655Z,13.10
2018-09-30T01:40:49.294Z,13.10
2018-09-30T01:43:17.959Z,13.00
2018-09-30T01:45:46.673Z,13.00
2018-09-30T01:48:15.299Z,12.90
2018-09-30T01:50:45.002Z,12.90
2018-09-30T01:53:13.616Z,12.90
2018-09-30T01:55:42.870Z,12.80
2018-09-30T01:58:11.439Z,12.80
2018-09-30T02:00:40.124Z,12.90
2018-09-30T02:03:08.775Z,13.00
2018-09-30T02:05:39.865Z,13.00
2018-09-30T02:08:08.595Z,13.00
2018-09-30T02:10:37.276Z,13.00
2018-09-30T02:13:05.976Z,13.00
2018-09-30T02:15:34.548Z,13.00
2018-09-30T02:18:03.344Z,12.80
2018-09-30T02:20:32.026Z,12.70
2018-09-30T02:23:01.595Z,12.70
2018-09-30T02:25:30.867Z,12.70
2018-09-30T02:27:59.513Z,12.60
2018-09-30T02:30:29.870Z,12.60
2018-09-30T02:32:59.931Z,12.50
2018-09-30T02:35:28.581Z,12.40
2018-09-30T02:37:57.205Z,12.30
2018-09-30T02:40:25.808Z,12.30
2018-09-30T02:42:54.451Z,12.20
2018-09-30T02:45:23.056Z,12.30
2018-09-30T02:47:51.711Z,12.30
2018-09-30T02:50:20.336Z,12.30
2018-09-30T02:52:48.926Z,12.30
2018-09-30T02:55:17.715Z,12.30
2018-09-30T02:57:47.116Z,12.30
2018-09-30T03:00:17.341Z,12.30
2018-09-30T03:02:45.912Z,12.20
2018-09-30T03:05:14.612Z,12.20
2018-09-30T03:07:48.308Z,12.20
2018-09-30T03:10:16.926Z,12.00
2018-09-30T03:12:46.363Z,12.00
2018-09-30T03:15:15.942Z,11.90
2018-09-30T03:17:44.929Z,11.80
2018-09-30T03:20:14.361Z,11.70
2018-09-30T03:22:43.325Z,11.70
2018-09-30T03:25:11.880Z,11.70
2018-09-30T03:27:42.904Z,11.70
2018-09-30T03:30:13.595Z,11.60
2018-09-30T03:40:15.757Z,11.60
2018-09-30T03:42:44.323Z,11.60
2018-09-30T03:45:13.510Z,11.60
2018-09-30T03:47:43.848Z,11.50
2018-09-30T03:50:12.518Z,11.50
2018-09-30T03:52:41.010Z,11.40
2018-09-30T03:55:09.656Z,11.40
2018-09-30T03:57:40.396Z,11.40
2018-09-30T04:00:11.487Z,11.40
2018-09-30T04:02:42.742Z,11.40
2018-09-30T04:05:13.166Z,11.50
2018-09-30T04:07:51.373Z,11.40
2018-09-30T04:10:32.265Z,11.40
2018-09-30T04:13:08.936Z,11.30
2018-09-30T04:15:39.577Z,11.20
2018-09-30T04:18:10.069Z,11.10
2018-09-30T04:20:40.330Z,11.10
2018-09-30T04:23:11.183Z,11.00
2018-09-30T04:25:44.160Z,11.00
2018-09-30T04:28:14.878Z,11.00
2018-09-30T04:30:47.822Z,11.00
2018-09-30T04:33:21.635Z,11.00
2018-09-30T04:35:54.264Z,11.00
2018-09-30T04:38:29.213Z,11.00
2018-09-30T04:41:05.029Z,11.00
2018-09-30T04:43:37.072Z,11.00
2018-09-30T04:46:06.085Z,11.00
2018-09-30T04:48:35.739Z,11.00
2018-09-30T04:51:05.435Z,10.90
2018-09-30T04:53:34.297Z,10.90
2018-09-30T04:56:03.186Z,10.80
2018-09-30T04:58:32.057Z,10.70
2018-09-30T05:01:01.090Z,10.70
2018-09-30T05:03:29.941Z,10.70
2018-09-30T05:05:58.725Z,10.80
2018-09-30T05:08:27.644Z,10.80
2018-09-30T05:10:57.351Z,10.80
2018-09-30T05:13:32.999Z,10.80
2018-09-30T05:16:02.034Z,10.80
2018-09-30T05:18:30.874Z,10.90
2018-09-30T05:20:59.804Z,10.90
2018-09-30T05:23:29.684Z,10.80
2018-09-30T05:25:58.581Z,10.80
2018-09-30T05:28:27.474Z,10.80
2018-09-30T05:34:00.986Z,10.80
2018-09-30T05:36:29.876Z,10.80
2018-09-30T05:39:00.006Z,10.80
2018-09-30T05:41:29.080Z,10.80
2018-09-30T05:43:57.774Z,10.80
2018-09-30T05:46:26.558Z,10.90
2018-09-30T05:48:55.443Z,11.00
2018-09-30T05:51:24.548Z,11.00
2018-09-30T05:53:53.511Z,11.10
2018-09-30T05:56:22.552Z,11.10
2018-09-30T05:59:19.603Z,11.10
2018-09-30T06:12:05.479Z,11.00
2018-09-30T06:14:44.918Z,11.00
2018-09-30T06:17:25.113Z,11.10
2018-09-30T06:19:55.337Z,11.20
2018-09-30T06:22:24.014Z,11.20
2018-09-30T06:24:52.751Z,11.10
2018-09-30T06:27:22.240Z,11.10
2018-09-30T06:29:50.899Z,11.00
2018-09-30T06:32:19.506Z,11.00
2018-09-30T06:46:51.233Z,11.30
2018-09-30T06:49:19.805Z,11.40
2018-09-30T06:51:48.358Z,11.50
2018-09-30T06:54:16.998Z,11.50
2018-09-30T06:56:46.274Z,11.60
2018-09-30T06:59:15.005Z,11.70
2018-09-30T07:01:43.672Z,11.80
2018-09-30T07:04:12.634Z,11.80
2018-09-30T07:06:41.237Z,11.90
2018-09-30T07:09:10.895Z,12.00
2018-09-30T07:11:39.430Z,12.10
2018-09-30T07:14:08.054Z,12.10
2018-09-30T07:16:36.697Z,12.10
2018-09-30T07:19:06.763Z,12.30
2018-09-30T07:21:39.300Z,12.50
2018-09-30T07:24:08.009Z,12.60
2018-09-30T07:26:37.240Z,12.70
2018-09-30T07:29:06.536Z,13.00
2018-09-30T07:31:35.212Z,13.20
2018-09-30T07:34:04.813Z,13.40
2018-09-30T07:36:34.335Z,13.50
2018-09-30T07:39:03.321Z,13.70
2018-09-30T07:41:33.578Z,13.70
2018-09-30T07:47:24.490Z,14.00
2018-09-30T07:50:03.425Z,14.10
2018-09-30T07:52:47.178Z,14.10
2018-09-30T07:55:25.219Z,14.20
2018-09-30T07:57:54.212Z,14.30
2018-09-30T08:00:34.540Z,14.30
2018-09-30T08:03:09.643Z,14.30
2018-09-30T08:05:44.693Z,14.20
2018-09-30T08:08:13.427Z,14.20
2018-09-30T08:10:43.016Z,14.30
2018-09-30T08:16:14.873Z,14.70
2018-09-30T08:18:50.356Z,14.90
2018-09-30T08:21:22.783Z,15.10
2018-09-30T08:23:54.697Z,15.10
2018-09-30T08:26:23.549Z,15.20
2018-09-30T08:31:49.957Z,15.30
2018-09-30T08:34:20.552Z,15.40
2018-09-30T08:36:50.155Z,15.40
2018-09-30T08:39:19.768Z,15.40
2018-09-30T08:41:49.531Z,15.40
2018-09-30T08:44:18.240Z,15.50
2018-09-30T08:46:47.610Z,15.70
2018-09-30T08:49:16.246Z,15.80
2018-09-30T08:51:46.628Z,15.90
2018-09-30T08:54:15.397Z,16.00
2018-09-30T08:56:44.041Z,16.20
2018-09-30T08:59:12.678Z,16.30
2018-09-30T09:01:41.197Z,16.50
2018-09-30T09:04:10.538Z,16.60
2018-09-30T09:06:39.189Z,16.70
2018-09-30T09:09:12.857Z,16.80
2018-09-30T09:11:42.571Z,16.80
2018-09-30T09:14:11.134Z,16.80
2018-09-30T09:16:40.402Z,16.90
2018-09-30T09:19:12.628Z,16.90
2018-09-30T09:21:47.581Z,16.90
2018-09-30T09:24:16.201Z,17.00
2018-09-30T09:26:44.789Z,17.00
2018-09-30T09:29:13.507Z,17.00
2018-09-30T09:31:43.343Z,17.10
2018-09-30T09:35:07.765Z,17.10
2018-09-30T09:37:37.853Z,17.20
2018-09-30T09:40:08.093Z,17.40
2018-09-30T09:42:41.972Z,17.40
2018-09-30T09:45:10.766Z,17.20
2018-09-30T09:47:39.508Z,17.20
2018-09-30T09:50:09.018Z,17.20
2018-09-30T09:52:37.991Z,17.40
2018-09-30T09:55:06.796Z,17.50
2018-09-30T09:57:35.856Z,17.70
2018-09-30T10:02:55.525Z,17.70
2018-09-30T10:09:46.635Z,17.90
2018-09-30T10:12:15.720Z,17.90
2018-09-30T10:14:45.608Z,18.00
2018-09-30T10:17:27.960Z,18.00
2018-09-30T10:25:43.854Z,17.90
2018-09-30T10:28:12.499Z,18.00
2018-09-30T10:30:41.002Z,18.10
2018-09-30T10:33:10.678Z,18.30
2018-09-30T10:35:39.767Z,18.40
2018-09-30T10:38:08.732Z,18.50
2018-09-30T10:40:37.456Z,18.50
2018-09-30T10:43:06.379Z,18.60
2018-09-30T10:45:35.610Z,18.50
2018-09-30T10:48:04.649Z,18.40
2018-09-30T10:50:36.602Z,18.50
2018-09-30T10:53:21.665Z,18.60
2018-09-30T10:55:58.893Z,18.70
2018-09-30T10:58:42.388Z,18.90
2018-09-30T11:01:11.307Z,18.90
2018-09-30T11:03:40.005Z,19.20
2018-09-30T11:06:10.775Z,19.50
2018-09-30T11:08:41.362Z,19.60
2018-09-30T11:11:12.662Z,19.40
2018-09-30T11:39:06.648Z,20.00
2018-09-30T11:42:00.187Z,19.30
2018-09-30T11:47:33.628Z,19.40
2018-09-30T11:50:13.833Z,19.50
2018-09-30T11:53:05.311Z,19.50
2018-09-30T11:55:43.571Z,19.40
2018-09-30T11:58:12.666Z,19.40
2018-09-30T12:00:53.612Z,19.50
2018-09-30T12:03:24.035Z,19.50
2018-09-30T12:05:56.451Z,19.50
2018-09-30T12:08:30.215Z,19.60
2018-09-30T12:11:00.171Z,19.80
2018-09-30T12:17:01.335Z,19.90
2018-09-30T12:19:30.028Z,19.90
2018-09-30T12:22:02.030Z,19.90
2018-09-30T12:24:32.327Z,19.90
2018-09-30T12:27:01.969Z,20.00
2018-09-30T12:29:37.758Z,20.00
2018-09-30T12:32:07.983Z,20.10
2018-09-30T12:34:37.291Z,20.20
2018-09-30T12:37:25.876Z,20.10
2018-09-30T12:39:56.641Z,20.20
2018-09-30T12:42:25.605Z,20.20
2018-09-30T12:44:57.145Z,20.30
2018-09-30T12:47:31.292Z,20.20
2018-09-30T12:50:03.229Z,20.30
2018-09-30T12:52:34.837Z,20.40
2018-09-30T12:55:05.408Z,20.40
2018-09-30T12:57:41.576Z,20.40
2018-09-30T13:00:12.568Z,20.50
2018-09-30T13:02:47.096Z,20.50
2018-09-30T13:05:20.984Z,20.50
2018-09-30T13:07:50.510Z,20.50
2018-09-30T13:15:53.623Z,20.60
2018-09-30T13:18:55.335Z,20.50
2018-09-30T13:24:25.080Z,20.60
2018-09-30T13:27:03.528Z,20.60
2018-09-30T13:29:46.592Z,20.60
2018-09-30T13:32:21.732Z,20.50
2018-09-30T13:34:50.415Z,20.60
2018-09-30T13:37:20.573Z,20.70
2018-09-30T13:39:53.611Z,20.70
2018-09-30T13:42:32.496Z,20.80
2018-09-30T13:45:04.959Z,20.90
2018-09-30T13:55:42.138Z,20.90
2018-09-30T13:58:10.894Z,20.80
2018-09-30T14:04:46.141Z,20.90
2018-09-30T14:07:15.502Z,20.90
2018-09-30T14:09:44.138Z,20.90
2018-09-30T14:12:23.525Z,20.90
2018-09-30T14:14:55.425Z,20.90
2018-09-30T14:17:29.385Z,20.90
2018-09-30T14:20:00.231Z,20.90
2018-09-30T14:22:36.996Z,20.90
2018-09-30T14:25:08.283Z,20.90
2018-09-30T14:27:49.898Z,20.90
2018-09-30T14:30:38.700Z,21.00
2018-09-30T14:33:07.626Z,21.00
2018-09-30T14:35:36.271Z,20.90
2018-09-30T14:38:04.991Z,21.00
2018-09-30T14:40:34.594Z,21.00
2018-09-30T14:43:03.305Z,21.00
2018-09-30T14:45:32.345Z,21.10
2018-09-30T14:48:01.153Z,21.10
2018-09-30T14:50:30.694Z,21.10
2018-09-30T14:52:59.318Z,21.10
2018-09-30T14:55:28.089Z,21.00
2018-09-30T14:57:57.208Z,21.10
2018-09-30T15:00:25.851Z,21.10
2018-09-30T15:02:54.470Z,21.10
2018-09-30T15:05:23.036Z,21.00
2018-09-30T15:08:03.398Z,21.10
2018-09-30T15:10:32.104Z,21.10
2018-09-30T15:13:28.805Z,21.10
2018-09-30T15:15:57.486Z,21.10
2018-09-30T15:18:26.039Z,21.10
2018-09-30T15:20:54.791Z,21.10
2018-09-30T15:23:23.345Z,21.10
2018-09-30T15:25:52.072Z,21.00
2018-09-30T15:28:22.609Z,20.90
2018-09-30T15:30:51.769Z,20.90
2018-09-30T15:33:21.541Z,20.90
2018-09-30T15:36:30.566Z,21.00
2018-09-30T15:38:59.168Z,21.00
2018-09-30T15:41:28.580Z,21.00
2018-09-30T15:43:57.153Z,21.00
2018-09-30T15:46:25.843Z,20.90
2018-09-30T15:48:55.534Z,20.70
2018-09-30T15:51:24.129Z,20.70
2018-09-30T15:53:52.709Z,20.70
2018-09-30T15:56:21.334Z,20.70
2018-09-30T15:58:49.881Z,20.60
2018-09-30T16:01:18.551Z,20.60
2018-09-30T16:03:47.746Z,20.60
2018-09-30T16:06:16.394Z,20.60
2018-09-30T16:08:45.031Z,20.60
2018-09-30T16:11:13.719Z,20.50
2018-09-30T16:13:42.974Z,20.50
2018-09-30T16:16:13.073Z,20.50
2018-09-30T16:18:41.802Z,20.60
2018-09-30T16:21:10.474Z,20.50
2018-09-30T16:23:39.128Z,20.50
2018-09-30T16:26:12.187Z,20.50
2018-09-30T16:28:42.243Z,20.50
2018-09-30T16:31:10.900Z,20.50
2018-09-30T16:33:39.720Z,20.50
2018-09-30T16:36:09.003Z,20.40
2018-09-30T16:38:37.773Z,20.30
2018-09-30T16:41:06.996Z,20.20
2018-09-30T16:51:32.640Z,20.10
2018-09-30T16:54:01.208Z,19.80
2018-09-30T16:56:30.644Z,19.80
2018-09-30T17:14:07.414Z,19.60
2018-09-30T17:16:36.099Z,19.40
2018-09-30T17:19:04.700Z,19.30
2018-09-30T17:21:33.216Z,19.30
2018-09-30T17:24:01.852Z,19.20
2018-09-30T17:26:30.413Z,19.20
2018-09-30T17:29:01.371Z,19.20
2018-09-30T17:34:10.328Z,19.10
2018-09-30T17:36:39.673Z,19.10
2018-09-30T17:39:09.381Z,19.10
2018-09-30T17:41:38.159Z,19.00
2018-09-30T17:44:07.241Z,18.90
2018-09-30T17:46:35.844Z,18.90
2018-09-30T17:49:05.830Z,18.90
2018-09-30T17:51:51.509Z,18.80
2018-09-30T17:54:23.204Z,18.80
2018-09-30T17:56:52.215Z,18.80
2018-09-30T17:59:43.940Z,18.80
2018-09-30T18:02:24.814Z,18.70
2018-09-30T18:05:30.161Z,18.70
2018-09-30T18:09:03.742Z,18.70
2018-09-30T18:11:35.627Z,18.60
2018-09-30T18:14:14.922Z,18.50
2018-09-30T18:17:01.959Z,18.50
2018-09-30T18:25:57.982Z,18.50
2018-09-30T18:28:28.933Z,18.50
2018-09-30T18:31:10.635Z,18.50
2018-09-30T18:37:53.539Z,18.50
2018-09-30T18:44:51.342Z,18.30
2018-09-30T19:54:02.989Z,18.30
2018-09-30T19:56:31.625Z,17.90
2018-09-30T19:59:01.339Z,17.80
2018-09-30T20:01:31.146Z,17.80
2018-09-30T20:04:01.086Z,17.80
2018-09-30T20:06:29.728Z,17.80
2018-09-30T20:08:59.262Z,17.80
2018-09-30T20:11:29.079Z,17.80
2018-09-30T20:13:57.901Z,17.90
2018-09-30T20:16:26.773Z,17.90
2018-09-30T20:18:55.565Z,18.00
2018-09-30T20:21:25.528Z,18.10
2018-09-30T20:23:56.559Z,18.10
2018-09-30T20:26:25.434Z,18.10
2018-09-30T20:28:54.980Z,18.10
2018-09-30T20:31:24.387Z,18.10
2018-09-30T20:33:53.172Z,18.10
2018-09-30T20:36:22.877Z,18.00
2018-09-30T20:38:51.597Z,18.00
2018-09-30T20:41:21.102Z,17.90
2018-09-30T20:43:50.840Z,17.90
2018-09-30T20:46:29.418Z,17.90
2018-09-30T20:48:59.215Z,17.90
2018-09-30T20:51:28.785Z,17.80
2018-09-30T20:59:57.643Z,17.80
2018-09-30T21:02:39.952Z,17.80
2018-09-30T21:12:13.639Z,17.70
2018-09-30T21:14:45.559Z,17.70
2018-09-30T21:17:14.360Z,17.60
2018-09-30T21:19:44.881Z,17.60
2018-09-30T21:22:15.108Z,17.60
2018-09-30T21:24:43.886Z,17.60
2018-09-30T21:27:12.646Z,17.60
2018-09-30T21:29:44.183Z,17.60
2018-09-30T21:38:45.357Z,17.60
2018-09-30T21:44:58.474Z,17.60
2018-09-30T21:53:05.925Z,17.70
2018-09-30T21:59:16.592Z,17.70
